Terminal Aerodrome Forecast
Issued by NWS

Home | Current Version | Previous Version | Text Only | Print | Product List | Glossary On
Versions: 1 2 3 4 5 6 7 8 9 10 11 12 13 14 15
743
FTUS45 KGGW 282320
TAFSDY
TAF
KSDY 282320Z 2900/2924 33020G30KT P6SM FEW100
     FM290200 34014KT P6SM FEW090
     FM290400 33009KT P6SM FEW100
     FM291500 32013KT P6SM FEW060=

USA.gov is the U.S. government's official web portal to all federal, state and local government web resources and services.